Time;durP1;ratioP1;P1;durP2;ratioP2;P2;SDS_P1;SDS_P2;PMS_P1;PMS_P2;Temp;Humidity;BMP_temperature;BMP_pressure;BME280_temperature;BME280_humidity;BME280_pressure;Samples;Min_cycle;Max_cycle;Signal;HPM_P1;HPM_P2
2024/01/20 00:01:35;;;;;;;17.60;6.70;;;;;;;6.58;44.46;102510.81;4985211;28;20032;-65
2024/01/20 00:04:01;;;;;;;21.25;6.32;;;;;;;6.62;45.70;102512.41;4994160;28;20397;-65
2024/01/20 00:06:26;;;;;;;12.05;5.68;;;;;;;6.61;44.81;102505.38;4992057;28;20018;-64
2024/01/20 00:08:52;;;;;;;20.60;5.63;;;;;;;6.63;44.35;102503.50;4993016;28;20022;-64
2024/01/20 00:11:17;;;;;;;14.38;5.97;;;;;;;6.57;44.73;102498.41;4993277;28;20077;-64
2024/01/20 00:13:42;;;;;;;14.15;5.57;;;;;;;6.58;45.87;102513.47;5009996;28;20026;-64
2024/01/20 00:16:08;;;;;;;15.65;6.47;;;;;;;6.58;44.86;102510.81;5010045;28;20113;-64
2024/01/20 00:18:33;;;;;;;16.50;5.22;;;;;;;6.51;44.66;102512.84;4993346;28;20080;-64
2024/01/20 00:20:59;;;;;;;19.48;6.30;;;;;;;6.54;46.04;102522.50;4994858;28;20029;-64
2024/01/20 00:23:24;;;;;;;13.38;5.22;;;;;;;6.55;44.45;102510.94;4993272;28;20486;-64
2024/01/20 00:25:49;;;;;;;16.33;6.88;;;;;;;6.55;45.82;102510.94;4993113;28;20449;-64
2024/01/20 00:28:17;;;;;;;19.27;6.32;;;;;;;6.57;45.10;102509.06;4992956;28;20493;-65
2024/01/20 00:30:42;;;;;;;16.50;5.90;;;;;;;6.59;45.77;102499.25;4993170;28;20033;-64
2024/01/20 00:33:08;;;;;;;12.15;5.03;;;;;;;6.63;45.53;102514.16;5009489;28;20030;-64
2024/01/20 00:35:34;;;;;;;19.35;6.80;;;;;;;6.66;44.58;102519.34;5009464;28;20026;-64
2024/01/20 00:37:59;;;;;;;12.77;5.80;;;;;;;6.65;45.25;102512.28;4994140;28;20034;-64
2024/01/20 00:40:25;;;;;;;13.00;5.45;;;;;;;6.70;45.80;102520.97;4994424;28;20105;-64
2024/01/20 00:42:50;;;;;;;18.05;5.72;;;;;;;6.70;45.68;102513.81;5009488;28;20441;-64
2024/01/20 00:45:15;;;;;;;13.73;5.45;;;;;;;6.72;45.11;102514.66;4992803;28;20038;-64
2024/01/20 00:47:40;;;;;;;23.77;7.15;;;;;;;6.72;44.97;102511.13;4994171;28;20041;-64
2024/01/20 00:50:07;;;;;;;16.90;6.63;;;;;;;6.73;45.77;102499.50;5009202;28;20054;-64
2024/01/20 00:52:32;;;;;;;14.25;5.63;;;;;;;6.73;45.21;102499.50;4994252;28;20031;-64
2024/01/20 00:54:58;;;;;;;16.65;6.47;;;;;;;6.70;45.53;102489.03;4993148;28;20105;-64
2024/01/20 00:57:23;;;;;;;17.52;7.32;;;;;;;6.79;45.57;102500.13;4992746;28;20435;-64
2024/01/20 00:59:49;;;;;;;15.85;5.78;;;;;;;6.83;45.53;102498.22;4993872;28;20061;-64
2024/01/20 01:02:16;;;;;;;16.42;6.28;;;;;;;6.84;45.28;102502.63;4993030;28;20097;-64
2024/01/20 01:04:42;;;;;;;20.25;6.70;;;;;;;6.84;46.01;102498.13;4994388;28;20057;-64
2024/01/20 01:07:07;;;;;;;16.73;6.32;;;;;;;6.86;45.18;102495.44;4993322;28;20038;-64
2024/01/20 01:09:32;;;;;;;13.88;5.97;;;;;;;6.87;44.63;102503.34;5008119;28;20042;-64
2024/01/20 01:11:58;;;;;;;15.38;5.97;;;;;;;6.86;44.88;102503.41;4993789;28;20038;-64
2024/01/20 01:14:24;;;;;;;13.80;6.40;;;;;;;6.86;45.29;102511.41;4993975;28;20031;-64
2024/01/20 01:16:49;;;;;;;12.25;5.55;;;;;;;6.88;46.15;102509.53;4992176;28;20505;-64
2024/01/20 01:19:15;;;;;;;17.50;7.05;;;;;;;6.87;45.38;102498.00;4992338;28;20031;-64
2024/01/20 01:21:41;;;;;;;20.33;6.35;;;;;;;6.92;45.34;102501.34;4993759;28;20037;-64
2024/01/20 01:24:06;;;;;;;20.95;7.18;;;;;;;6.92;45.85;102506.66;4992152;28;20038;-65
2024/01/20 01:26:32;;;;;;;17.15;5.80;;;;;;;6.92;45.19;102509.34;4993830;28;20030;-64
2024/01/20 01:28:57;;;;;;;17.90;7.45;;;;;;;6.93;45.37;102516.41;4992302;28;20034;-64
2024/01/20 01:31:23;;;;;;;17.20;6.95;;;;;;;6.91;45.86;102512.06;4993989;28;20093;-64
2024/01/20 01:33:48;;;;;;;19.65;7.43;;;;;;;6.85;45.21;102509.66;5009260;28;20461;-64
2024/01/20 01:36:14;;;;;;;19.00;5.78;;;;;;;6.81;46.08;102516.91;5012957;28;20042;-64
2024/01/20 01:38:41;;;;;;;22.73;6.32;;;;;;;6.80;45.23;102533.84;4996264;28;20046;-64
2024/01/20 01:41:06;;;;;;;13.13;6.40;;;;;;;6.77;45.34;102528.63;5012604;28;20465;-65
2024/01/20 01:43:31;;;;;;;13.20;6.97;;;;;;;6.78;45.77;102530.38;4996200;28;20030;-64
2024/01/20 01:45:57;;;;;;;15.02;6.45;;;;;;;6.72;46.00;102529.75;4996226;28;20039;-64
2024/01/20 01:48:23;;;;;;;15.65;6.07;;;;;;;6.74;46.25;102527.88;5012623;28;20035;-64
2024/01/20 01:50:49;;;;;;;18.38;6.00;;;;;;;6.72;45.41;102535.06;4997471;28;20030;-64
2024/01/20 01:53:14;;;;;;;15.63;6.38;;;;;;;6.72;45.96;102537.75;4995860;28;20058;-64
2024/01/20 01:55:40;;;;;;;16.83;6.65;;;;;;;6.70;46.23;102534.28;5012326;28;20520;-64
2024/01/20 01:58:06;;;;;;;13.65;5.22;;;;;;;6.68;45.90;102539.66;4995960;28;20096;-64
2024/01/20 02:00:31;;;;;;;20.70;6.30;;;;;;;6.63;45.12;102530.13;4995996;28;20050;-64
2024/01/20 02:02:57;;;;;;;13.63;7.03;;;;;;;6.65;45.96;102538.91;5012479;28;20040;-64
2024/01/20 02:05:23;;;;;;;16.75;6.32;;;;;;;6.64;44.91;102546.03;4996043;28;20405;-64
2024/01/20 02:07:49;;;;;;;14.05;6.20;;;;;;;6.67;46.63;102550.38;4996343;28;20089;-64
2024/01/20 02:10:17;;;;;;;15.32;5.97;;;;;;;6.65;45.21;102534.44;4979453;28;20405;-64
2024/01/20 02:12:42;;;;;;;14.88;6.90;;;;;;;6.70;46.38;102542.28;4997211;28;20494;-64
2024/01/20 02:15:08;;;;;;;10.02;5.70;;;;;;;6.68;46.03;102554.75;4995546;28;20039;-64
2024/01/20 02:17:34;;;;;;;22.08;7.25;;;;;;;6.67;45.91;102553.03;4995567;28;20518;-64
2024/01/20 02:19:59;;;;;;;18.55;6.38;;;;;;;6.68;45.61;102560.06;4997042;28;20038;-64
2024/01/20 02:22:24;;;;;;;18.85;6.07;;;;;;;6.63;46.01;102554.06;4995353;28;20058;-64
2024/01/20 02:24:51;;;;;;;16.48;7.03;;;;;;;6.63;46.05;102557.63;4995502;28;20061;-64
2024/01/20 02:27:17;;;;;;;17.88;6.80;;;;;;;6.63;45.63;102562.06;5012061;28;20041;-64
2024/01/20 02:29:43;;;;;;;14.75;6.65;;;;;;;6.60;45.93;102556.84;4995765;28;20437;-64
2024/01/20 02:32:08;;;;;;;19.05;6.90;;;;;;;6.62;45.51;102565.66;5011875;28;20118;-64
2024/01/20 02:34:34;;;;;;;14.48;5.70;;;;;;;6.58;46.36;102554.28;4997203;28;20081;-64
2024/01/20 02:36:59;;;;;;;22.13;7.95;;;;;;;6.59;45.08;102566.63;5011582;28;20489;-64
2024/01/20 02:39:25;;;;;;;17.00;8.23;;;;;;;6.60;46.34;102556.84;4995210;28;20121;-64
2024/01/20 02:41:50;;;;;;;21.10;8.00;;;;;;;6.62;45.03;102561.19;4994726;28;20120;-64
2024/01/20 02:44:17;;;;;;;15.10;6.93;;;;;;;6.66;46.01;102559.28;5011468;28;20046;-64
2024/01/20 02:46:42;;;;;;;15.27;6.05;;;;;;;6.65;45.52;102560.19;4993827;28;20038;-64
2024/01/20 02:49:08;;;;;;;19.58;7.55;;;;;;;6.71;46.36;102562.63;4995018;28;20030;-64
2024/01/20 02:51:33;;;;;;;14.10;6.47;;;;;;;6.74;46.22;102566.03;4996192;28;20035;-64
2024/01/20 02:53:59;;;;;;;16.08;7.68;;;;;;;6.73;45.87;102564.28;4995413;28;20038;-64
2024/01/20 02:56:24;;;;;;;15.68;6.72;;;;;;;6.73;46.55;102569.63;4994891;28;20042;-64
2024/01/20 02:58:50;;;;;;;18.05;7.65;;;;;;;6.72;45.97;102567.03;5011134;28;20034;-64
2024/01/20 03:01:16;;;;;;;19.30;6.70;;;;;;;6.75;45.75;102559.78;4978642;28;20417;-64
2024/01/20 03:03:41;;;;;;;16.50;6.43;;;;;;;6.77;45.71;102552.59;4978465;28;20037;-64
2024/01/20 03:06:08;;;;;;;17.60;6.22;;;;;;;6.84;46.26;102563.88;5011063;28;20046;-64
2024/01/20 03:08:33;;;;;;;20.40;6.75;;;;;;;6.83;46.31;102559.47;4994683;28;20058;-64
2024/01/20 03:10:59;;;;;;;17.70;6.80;;;;;;;6.85;46.17;102565.59;4995628;28;20089;-64
2024/01/20 03:13:24;;;;;;;23.05;6.65;;;;;;;6.85;46.73;102568.25;5010893;28;20523;-64
2024/01/20 03:15:50;;;;;;;14.30;6.22;;;;;;;6.87;46.47;102561.06;4994543;28;20026;-64
2024/01/20 03:18:15;;;;;;;13.40;5.57;;;;;;;6.85;45.48;102562.94;5010959;28;20042;-64
2024/01/20 03:20:40;;;;;;;14.82;7.50;;;;;;;6.83;45.55;102556.81;4995825;28;20065;-64
2024/01/20 03:23:06;;;;;;;19.52;7.20;;;;;;;6.84;45.78;102559.41;4995822;28;20046;-64
2024/01/20 03:25:32;;;;;;;14.00;6.30;;;;;;;6.87;46.72;102566.38;4994324;28;20046;-64
2024/01/20 03:27:57;;;;;;;16.65;6.95;;;;;;;6.85;46.72;102563.81;4994355;28;20038;-64
2024/01/20 03:30:23;;;;;;;17.77;6.40;;;;;;;6.89;46.64;102569.88;4994348;28;20129;-64
2024/01/20 03:32:48;;;;;;;18.23;6.57;;;;;;;6.89;46.04;102564.56;4994345;28;20485;-64
2024/01/20 03:35:14;;;;;;;21.42;7.32;;;;;;;6.90;46.58;102571.59;4995385;28;20031;-64
2024/01/20 03:37:39;;;;;;;18.13;6.90;;;;;;;6.89;46.47;102575.19;4994067;28;20046;-64
2024/01/20 03:40:05;;;;;;;19.20;6.60;;;;;;;6.91;46.02;102579.53;5010545;28;20060;-64
2024/01/20 03:42:31;;;;;;;17.55;6.60;;;;;;;6.89;46.46;102568.09;4993927;28;20146;-64
2024/01/20 03:44:56;;;;;;;18.55;7.55;;;;;;;6.88;46.62;102569.00;4995109;28;20066;-64
2024/01/20 03:47:22;;;;;;;16.67;5.88;;;;;;;6.89;46.04;102569.88;4993933;28;20038;-63
2024/01/20 03:49:47;;;;;;;17.27;7.78;;;;;;;6.93;45.89;102579.47;5010142;28;20100;-64
2024/01/20 03:52:12;;;;;;;17.15;7.22;;;;;;;6.92;46.21;102581.25;4993818;28;20457;-64
2024/01/20 03:54:38;;;;;;;19.33;7.03;;;;;;;6.94;46.19;102579.41;5010304;28;20062;-64
2024/01/20 03:57:03;;;;;;;17.23;7.03;;;;;;;6.96;46.94;102576.66;4993372;28;20035;-64
2024/01/20 03:59:29;;;;;;;18.55;6.45;;;;;;;6.90;46.74;102576.91;5010092;28;20042;-64
2024/01/20 04:01:54;;;;;;;18.80;8.35;;;;;;;6.89;46.14;102570.75;4994878;28;20437;-64
2024/01/20 04:04:20;;;;;;;14.48;6.25;;;;;;;6.89;47.09;102569.88;4994785;28;20038;-64
2024/01/20 04:06:45;;;;;;;16.33;5.65;;;;;;;6.92;45.92;102575.09;4977208;28;20161;-64
2024/01/20 04:09:11;;;;;;;14.57;5.60;;;;;;;6.90;45.83;102571.59;4993117;28;20054;-64
2024/01/20 04:11:37;;;;;;;16.63;6.03;;;;;;;6.91;46.63;102562.69;4993555;28;20042;-64
2024/01/20 04:14:02;;;;;;;19.48;7.60;;;;;;;6.90;46.89;102556.47;4993313;28;20126;-64
2024/01/20 04:16:29;;;;;;;21.08;6.75;;;;;;;6.91;46.15;102568.00;4994684;28;20042;-64
2024/01/20 04:18:54;;;;;;;22.25;6.28;;;;;;;6.88;46.75;102574.34;4993193;28;20038;-64
2024/01/20 04:21:19;;;;;;;21.98;7.93;;;;;;;6.88;46.62;102578.78;4993256;28;20041;-64
2024/01/20 04:23:45;;;;;;;19.73;8.18;;;;;;;6.86;46.84;102575.31;4993074;28;20034;-64
2024/01/20 04:26:10;;;;;;;26.75;7.68;;;;;;;6.81;46.31;102572.00;4993081;28;20045;-64
2024/01/20 04:28:36;;;;;;;22.42;8.80;;;;;;;6.84;46.35;102585.19;4994275;28;20101;-64
2024/01/20 04:31:02;;;;;;;22.80;8.23;;;;;;;6.81;46.89;102587.97;4993223;28;20038;-64
2024/01/20 04:33:27;;;;;;;23.70;7.88;;;;;;;6.77;46.15;102591.66;4994367;28;20038;-64
2024/01/20 04:35:53;;;;;;;29.63;7.55;;;;;;;6.75;46.66;102588.22;4993061;28;20378;-64
2024/01/20 04:38:18;;;;;;;19.77;7.78;;;;;;;6.72;46.59;102594.53;5009393;28;20042;-64
2024/01/20 04:40:43;;;;;;;26.38;8.05;;;;;;;6.70;46.08;102587.53;5009330;28;20044;-64
2024/01/20 04:43:09;;;;;;;27.17;8.48;;;;;;;6.72;47.07;102601.66;5009698;28;20069;-64
2024/01/20 04:45:35;;;;;;;31.50;9.52;;;;;;;6.70;46.70;102603.50;4992996;28;20490;-64
2024/01/20 04:48:01;;;;;;;18.63;7.10;;;;;;;6.68;47.00;102600.00;4992744;28;20089;-64
2024/01/20 04:50:26;;;;;;;17.98;7.10;;;;;;;6.68;46.24;102613.31;4994126;28;20042;-64
2024/01/20 04:52:51;;;;;;;23.33;7.63;;;;;;;6.65;45.68;102610.78;4992494;28;20113;-64
2024/01/20 04:55:17;;;;;;;25.90;9.05;;;;;;;6.59;46.76;102608.38;4992978;28;20489;-64
2024/01/20 04:57:42;;;;;;;18.05;7.32;;;;;;;6.61;45.71;102611.84;4993906;28;20514;-65
2024/01/20 05:00:08;;;;;;;19.00;8.00;;;;;;;6.58;46.45;102614.63;5009330;28;20058;-64
2024/01/20 05:02:35;;;;;;;18.40;7.40;;;;;;;6.56;45.82;102620.00;4992982;28;20493;-64
2024/01/20 05:05:01;;;;;;;22.80;6.95;;;;;;;6.51;45.91;102629.97;4986866;28;20093;-64
2024/01/20 05:07:27;;;;;;;19.40;8.75;;;;;;;6.48;46.40;102622.09;4992914;28;20046;-64
2024/01/20 05:09:52;;;;;;;27.25;8.20;;;;;;;6.47;46.08;102624.81;4993132;28;20168;-64
2024/01/20 05:12:18;;;;;;;26.35;8.15;;;;;;;6.48;46.00;102621.25;4993570;28;20121;-64
2024/01/20 05:14:43;;;;;;;23.38;8.32;;;;;;;6.48;45.99;102621.25;4976247;28;20041;-66
2024/01/20 05:17:09;;;;;;;25.92;8.63;;;;;;;6.44;45.69;102624.03;4976177;28;20034;-63
2024/01/20 05:19:38;;;;;;;27.65;9.23;;;;;;;6.40;45.75;102630.38;4994453;28;20030;-64
2024/01/20 05:22:03;;;;;;;25.45;9.15;;;;;;;6.38;46.67;102620.72;4992969;28;20034;-64
2024/01/20 05:24:28;;;;;;;25.80;8.80;;;;;;;6.37;47.16;102630.50;4993839;28;20117;-64
2024/01/20 05:26:54;;;;;;;25.63;7.88;;;;;;;6.31;46.25;102630.72;4993464;28;20053;-64
2024/01/20 05:29:19;;;;;;;21.45;7.93;;;;;;;6.30;46.63;102633.44;4991970;28;20065;-64
2024/01/20 05:31:44;;;;;;;24.52;9.15;;;;;;;6.26;45.97;102627.38;4992256;28;20038;-64
2024/01/20 05:34:10;;;;;;;21.77;7.00;;;;;;;6.28;46.29;102637.97;4992632;28;20047;-64
2024/01/20 05:36:36;;;;;;;23.13;7.18;;;;;;;6.27;45.73;102645.06;4962120;28;20070;-63
2024/01/20 05:39:01;;;;;;;20.85;7.05;;;;;;;6.23;46.37;102643.44;4973944;28;20061;-64
2024/01/20 05:41:26;;;;;;;24.88;7.38;;;;;;;6.18;46.04;102645.41;4956861;28;20069;-64
2024/01/20 05:43:52;;;;;;;34.63;8.45;;;;;;;6.13;46.04;102639.41;4956580;28;20039;-64
2024/01/20 05:46:20;;;;;;;20.50;7.88;;;;;;;6.13;46.34;102644.72;4972517;28;20134;-64
2024/01/20 05:48:45;;;;;;;22.05;9.20;;;;;;;6.13;45.95;102643.84;4973937;28;20177;-64
2024/01/20 05:51:11;;;;;;;22.95;8.07;;;;;;;6.14;46.80;102648.25;4972437;28;20117;-64
2024/01/20 05:53:36;;;;;;;24.88;8.27;;;;;;;6.12;46.82;102647.41;4956684;28;20043;-65
2024/01/20 05:56:01;;;;;;;22.77;8.27;;;;;;;6.10;46.64;102642.16;4972446;28;20506;-64
2024/01/20 05:58:27;;;;;;;20.70;8.52;;;;;;;6.05;46.05;102644.13;4988841;28;20165;-64
2024/01/20 06:00:52;;;;;;;19.23;7.07;;;;;;;6.08;46.50;102654.66;4993570;28;20049;-64
2024/01/20 06:03:18;;;;;;;22.25;7.47;;;;;;;6.07;46.03;102655.56;4992184;28;20034;-64
2024/01/20 06:05:43;;;;;;;20.40;6.45;;;;;;;6.04;45.81;102646.84;4975852;28;20037;-64
2024/01/20 06:08:08;;;;;;;28.77;6.63;;;;;;;6.00;46.99;102662.06;4991997;28;20038;-64
2024/01/20 06:10:34;;;;;;;19.98;7.72;;;;;;;5.97;45.70;102662.16;4991604;28;20052;-64
2024/01/20 06:12:59;;;;;;;31.63;8.52;;;;;;;5.92;47.27;102666.75;4991917;28;20042;-64
2024/01/20 06:15:24;;;;;;;20.20;8.23;;;;;;;5.85;46.02;102659.94;4993372;28;20034;-64
2024/01/20 06:17:50;;;;;;;23.17;7.63;;;;;;;5.86;46.42;102674.97;4976027;28;20094;-64
2024/01/20 06:20:16;;;;;;;23.65;8.55;;;;;;;5.81;46.54;102666.22;4994622;28;20532;-63
2024/01/20 06:22:42;;;;;;;19.50;6.93;;;;;;;5.80;45.86;102667.16;4997100;28;20498;-64
2024/01/20 06:25:07;;;;;;;14.07;6.35;;;;;;;5.82;46.40;102668.84;4996806;28;20515;-64
2024/01/20 06:27:33;;;;;;;20.98;8.25;;;;;;;5.81;46.84;102677.75;4995483;28;20129;-64
2024/01/20 06:29:59;;;;;;;17.88;6.70;;;;;;;5.74;47.04;102673.56;4995396;28;20181;-64
2024/01/20 06:32:24;;;;;;;16.08;7.35;;;;;;;5.74;45.63;102680.66;4995305;28;20509;-64
2024/01/20 06:34:50;;;;;;;18.60;6.75;;;;;;;5.69;46.18;102679.97;4979150;28;20031;-64
2024/01/20 06:37:16;;;;;;;21.60;6.50;;;;;;;5.66;46.32;102682.72;4996709;28;20117;-64
2024/01/20 06:39:42;;;;;;;19.83;7.10;;;;;;;5.65;46.95;102687.16;4977850;28;20479;-64
2024/01/20 06:42:10;;;;;;;16.80;7.00;;;;;;;5.68;46.71;102696.81;4995383;28;20057;-64
2024/01/20 06:44:35;;;;;;;16.65;6.85;;;;;;;5.68;46.22;102704.81;4995132;28;20027;-63
2024/01/20 06:47:00;;;;;;;17.38;5.82;;;;;;;5.70;46.19;102711.78;4994789;28;20046;-64
2024/01/20 06:49:25;;;;;;;21.27;6.45;;;;;;;5.67;47.00;102705.72;4995418;28;20097;-64
2024/01/20 06:51:51;;;;;;;20.80;7.57;;;;;;;5.65;47.24;102710.22;4996834;28;20701;-71
2024/01/20 06:54:16;;;;;;;21.35;6.32;;;;;;;5.67;46.49;102722.53;4997793;28;20037;-71
2024/01/20 06:56:42;;;;;;;17.73;6.55;;;;;;;5.64;47.22;102727.94;4997482;28;20054;-71
2024/01/20 06:59:08;;;;;;;19.02;5.75;;;;;;;5.61;46.53;102730.72;4995997;28;20117;-71
2024/01/20 07:01:33;;;;;;;18.58;5.68;;;;;;;5.63;46.62;102734.22;4997007;28;20561;-71
2024/01/20 07:03:59;;;;;;;15.35;6.55;;;;;;;5.63;45.82;102730.69;4995793;28;20038;-71
2024/01/20 07:06:24;;;;;;;20.63;7.50;;;;;;;5.64;46.03;102727.09;4997347;28;20490;-71
2024/01/20 07:08:50;;;;;;;17.17;6.38;;;;;;;5.60;47.22;102722.78;4979408;28;20058;-71
2024/01/20 07:11:15;;;;;;;15.30;7.05;;;;;;;5.60;46.76;102718.34;4979541;28;20494;-71
2024/01/20 07:13:40;;;;;;;14.35;6.25;;;;;;;5.60;46.64;102725.47;4979452;28;20490;-71
2024/01/20 07:16:13;;;;;;;18.45;6.32;;;;;;;5.57;45.69;102720.25;4995540;28;20502;-71
2024/01/20 07:18:41;;;;;;;14.50;6.60;;;;;;;5.57;45.54;102720.25;4996056;28;20034;-71
2024/01/20 07:21:07;;;;;;;20.95;6.07;;;;;;;5.54;47.64;102721.22;4995817;28;20391;-71
2024/01/20 07:23:32;;;;;;;15.77;4.97;;;;;;;5.55;45.81;102722.09;4979088;28;20027;-71
2024/01/20 07:25:58;;;;;;;23.35;7.63;;;;;;;5.54;45.63;102720.34;4995597;28;20026;-71
2024/01/20 07:28:25;;;;;;;19.67;6.35;;;;;;;5.54;46.93;102723.00;4979234;28;20070;-71
2024/01/20 07:30:50;;;;;;;15.15;5.55;;;;;;;5.54;46.94;102721.22;4979350;28;20034;-71
2024/01/20 07:33:15;;;;;;;14.82;5.78;;;;;;;5.53;47.28;102729.22;4996149;28;20548;-71
2024/01/20 07:35:42;;;;;;;14.90;5.57;;;;;;;5.50;46.63;102734.66;4979706;28;20521;-71
2024/01/20 07:38:08;;;;;;;16.65;6.45;;;;;;;5.49;46.54;102740.88;4994484;28;20042;-71
2024/01/20 07:40:33;;;;;;;23.77;5.78;;;;;;;5.45;46.24;102742.75;4995565;28;20367;-71
2024/01/20 07:42:58;;;;;;;16.23;5.60;;;;;;;5.48;45.71;102741.78;4994545;28;20014;-71
2024/01/20 07:45:26;;;;;;;12.38;4.97;;;;;;;5.46;46.79;102739.19;4995350;28;20018;-71
2024/01/20 07:47:52;;;;;;;15.80;6.03;;;;;;;5.50;45.55;102755.91;4979167;28;20081;-71
2024/01/20 07:50:17;;;;;;;12.60;4.53;;;;;;;5.49;46.33;102749.72;4979165;28;20026;-71
2024/01/20 07:52:43;;;;;;;16.30;4.95;;;;;;;5.49;46.44;102743.53;4995883;28;20022;-71
2024/01/20 07:55:08;;;;;;;13.63;5.22;;;;;;;5.46;46.83;102747.16;4996318;28;20030;-71
2024/01/20 07:57:34;;;;;;;11.90;4.65;;;;;;;5.53;46.68;102742.50;4994858;28;20474;-71
2024/01/20 08:00:00;;;;;;;9.95;4.65;;;;;;;5.49;47.10;102736.44;4978444;28;20023;-64
2024/01/20 08:02:25;;;;;;;11.95;4.30;;;;;;;5.57;45.78;102741.50;4993600;28;20025;-64
2024/01/20 08:04:50;;;;;;;10.60;4.60;;;;;;;5.57;47.65;102736.19;4993534;28;20077;-63
2024/01/20 08:07:16;;;;;;;9.68;5.25;;;;;;;5.72;45.56;102741.00;4993639;28;20027;-64
2024/01/20 08:09:41;;;;;;;15.90;6.43;;;;;;;5.77;46.27;102736.41;4993239;28;20046;-64
2024/01/20 08:12:06;;;;;;;16.83;4.53;;;;;;;5.82;47.33;102732.66;4993619;28;20030;-64
2024/01/20 08:14:32;;;;;;;10.02;5.45;;;;;;;5.83;45.51;102733.53;4994780;28;20072;-63
2024/01/20 08:16:57;;;;;;;15.00;5.68;;;;;;;5.83;46.33;102736.19;4993556;28;20021;-64
2024/01/20 08:19:22;;;;;;;11.25;5.72;;;;;;;5.78;45.98;102740.78;4977252;28;20072;-65
2024/01/20 08:21:48;;;;;;;10.38;5.22;;;;;;;5.76;45.72;102747.94;4993383;28;20018;-64
2024/01/20 08:24:13;;;;;;;12.10;5.35;;;;;;;5.72;45.23;102748.97;4994502;28;20022;-64
2024/01/20 08:26:38;;;;;;;19.17;5.53;;;;;;;5.63;46.32;102749.28;4976766;28;20030;-64
2024/01/20 08:29:04;;;;;;;10.07;4.63;;;;;;;5.59;45.71;102755.59;4993085;28;20109;-64
2024/01/20 08:31:29;;;;;;;18.27;6.05;;;;;;;5.58;45.81;102753.88;4993180;28;20048;-64
2024/01/20 08:33:56;;;;;;;15.95;6.07;;;;;;;5.57;46.58;102765.41;4977134;28;20029;-64
2024/01/20 08:36:21;;;;;;;10.57;4.63;;;;;;;5.51;46.29;102752.31;4994340;28;20025;-64
2024/01/20 08:38:48;;;;;;;18.15;4.95;;;;;;;5.49;45.94;102764.81;4994926;28;20029;-64
2024/01/20 08:41:13;;;;;;;13.35;5.75;;;;;;;5.47;45.61;102766.66;4975899;28;20072;-64
2024/01/20 08:43:42;;;;;;;12.52;4.70;;;;;;;5.41;44.81;102766.84;4992396;28;20113;-64
2024/01/20 08:46:08;;;;;;;16.17;6.15;;;;;;;5.40;46.30;102781.03;4992824;28;20034;-62
2024/01/20 08:48:34;;;;;;;14.20;5.47;;;;;;;5.38;45.50;102773.13;4994287;28;20399;-62
2024/01/20 08:50:59;;;;;;;13.02;5.60;;;;;;;5.36;45.72;102774.09;4991842;28;20042;-62
2024/01/20 08:53:26;;;;;;;21.98;7.15;;;;;;;5.37;46.07;102775.81;4993144;28;20433;-62
2024/01/20 08:55:52;;;;;;;12.18;5.35;;;;;;;5.36;46.15;102774.09;4992992;28;20101;-63
2024/01/20 08:58:17;;;;;;;10.98;5.28;;;;;;;5.37;45.14;102770.50;4992794;28;20117;-64
2024/01/20 09:00:42;;;;;;;16.90;6.97;;;;;;;5.39;45.87;102763.38;4976356;28;20105;-64
2024/01/20 09:03:08;;;;;;;16.50;6.53;;;;;;;5.44;46.10;102778.25;4992478;28;20039;-67
2024/01/20 09:05:33;;;;;;;13.27;6.03;;;;;;;5.47;45.42;102777.28;4992419;28;20037;-63
2024/01/20 09:07:58;;;;;;;13.73;6.03;;;;;;;5.47;44.39;102771.97;4990627;28;20490;-64
2024/01/20 09:10:24;;;;;;;10.15;5.07;;;;;;;5.50;45.14;102774.53;4990792;28;20033;-63
2024/01/20 09:12:49;;;;;;;12.90;5.60;;;;;;;5.59;46.17;102788.38;4993447;28;20045;-64
2024/01/20 09:15:15;;;;;;;13.50;5.95;;;;;;;5.62;44.70;102782.09;4992396;28;20065;-64
2024/01/20 09:17:40;;;;;;;18.75;7.18;;;;;;;5.68;45.15;102777.44;4992132;28;20026;-64
2024/01/20 09:20:06;;;;;;;20.50;6.57;;;;;;;5.71;44.96;102771.16;4993435;28;20041;-63
2024/01/20 09:22:32;;;;;;;14.45;6.10;;;;;;;5.76;44.38;102787.81;4993879;28;20105;-64
2024/01/20 09:24:58;;;;;;;15.75;5.80;;;;;;;5.83;45.07;102792.03;4991941;28;20597;-63
2024/01/20 09:27:24;;;;;;;15.25;6.57;;;;;;;5.88;45.41;102786.59;4991952;28;20030;-65
2024/01/20 09:29:49;;;;;;;17.38;6.68;;;;;;;5.91;44.99;102787.34;4971575;28;20031;-63
2024/01/20 09:32:15;;;;;;;13.63;6.20;;;;;;;5.93;44.87;102785.50;4987618;28;20027;-63
2024/01/20 09:34:40;;;;;;;11.73;5.40;;;;;;;5.92;44.06;102789.06;4972810;28;20117;-63
2024/01/20 09:37:05;;;;;;;13.07;6.22;;;;;;;5.99;44.52;102787.09;4972909;28;20031;-64
2024/01/20 09:39:31;;;;;;;11.73;6.63;;;;;;;6.00;44.59;102795.03;4956834;28;20062;-64
2024/01/20 09:41:57;;;;;;;16.08;5.68;;;;;;;6.09;45.29;102799.16;4972764;28;20059;-64
2024/01/20 09:44:22;;;;;;;14.77;5.80;;;;;;;6.16;44.45;102801.56;4956434;28;20540;-63
2024/01/20 09:46:48;;;;;;;13.90;7.18;;;;;;;6.24;43.88;102799.50;4956562;28;20126;-64
2024/01/20 09:49:13;;;;;;;16.33;5.82;;;;;;;6.44;44.60;102807.69;4956448;28;20035;-64
2024/01/20 09:51:50;;;;;;;17.08;6.25;;;;;;;6.61;43.94;102803.53;4972861;28;20051;-64
2024/01/20 09:54:20;;;;;;;13.93;5.65;;;;;;;6.84;44.26;102800.91;4972516;28;20031;-64
2024/01/20 09:56:45;;;;;;;13.52;5.97;;;;;;;7.02;43.23;102803.75;4975877;28;20026;-64
2024/01/20 09:59:11;;;;;;;14.38;6.40;;;;;;;7.24;43.60;102795.78;4976237;28;20521;-64
2024/01/20 10:01:37;;;;;;;12.68;6.45;;;;;;;7.46;44.19;102796.69;4960258;28;20031;-64
2024/01/20 10:04:05;;;;;;;13.82;5.90;;;;;;;7.70;43.20;102791.31;4976343;28;20121;-64
2024/01/20 10:06:31;;;;;;;14.52;6.80;;;;;;;7.93;43.95;102785.84;4976319;28;20117;-65
2024/01/20 10:08:56;;;;;;;14.02;6.30;;;;;;;8.17;44.10;102784.84;4975623;28;20043;-64
2024/01/20 10:11:21;;;;;;;15.98;7.20;;;;;;;8.38;43.85;102780.38;4976040;28;20039;-64
2024/01/20 10:13:47;;;;;;;15.23;6.50;;;;;;;8.58;42.93;102781.25;4975835;28;20046;-64
2024/01/20 10:16:12;;;;;;;15.77;6.88;;;;;;;8.75;43.61;102778.69;4976437;28;20035;-64
2024/01/20 10:18:38;;;;;;;13.48;6.40;;;;;;;8.92;42.69;102787.75;4959972;28;20078;-64
2024/01/20 10:21:04;;;;;;;12.93;7.05;;;;;;;9.07;43.13;102776.34;4977561;28;20054;-64
2024/01/20 10:23:29;;;;;;;19.17;6.63;;;;;;;9.21;43.00;102771.22;4977125;28;20557;-64
2024/01/20 10:26:02;;;;;;;17.08;6.22;;;;;;;9.37;42.39;102777.56;4976887;28;20101;-64
2024/01/20 10:28:27;;;;;;;16.27;6.68;;;;;;;9.45;42.52;102764.69;4975905;28;20050;-64
2024/01/20 10:30:52;;;;;;;10.25;5.45;;;;;;;9.58;42.49;102771.16;4975897;28;20027;-64
2024/01/20 10:33:18;;;;;;;12.65;6.45;;;;;;;9.73;42.63;102770.44;4975963;28;20427;-64
2024/01/20 10:35:43;;;;;;;14.23;6.30;;;;;;;9.85;42.19;102759.09;4960096;28;20039;-64
2024/01/20 10:38:18;;;;;;;13.68;5.97;;;;;;;9.97;41.88;102756.78;4975697;28;20027;-64
2024/01/20 10:40:45;;;;;;;11.07;6.55;;;;;;;10.08;41.53;102759.75;4976892;28;20031;-64
2024/01/20 10:43:14;;;;;;;15.70;6.70;;;;;;;10.20;42.14;102743.94;4959580;28;20026;-64
2024/01/20 10:45:50;;;;;;;12.68;6.72;;;;;;;10.34;41.68;102746.78;4959395;28;20030;-65
2024/01/20 10:48:17;;;;;;;14.85;6.22;;;;;;;10.47;41.33;102742.50;4959420;28;20039;-64
2024/01/20 10:50:52;;;;;;;13.45;6.53;;;;;;;10.63;41.57;102753.28;4975656;28;20035;-64
2024/01/20 10:53:17;;;;;;;11.45;6.32;;;;;;;10.75;41.90;102751.75;4975511;28;20054;-64
2024/01/20 10:55:45;;;;;;;12.80;5.68;;;;;;;10.87;41.53;102751.06;4975508;28;20431;-64
2024/01/20 10:58:12;;;;;;;12.30;5.97;;;;;;;11.00;41.37;102749.44;4975630;28;20406;-64
2024/01/20 11:00:39;;;;;;;13.88;6.85;;;;;;;11.09;41.28;102744.44;4959325;28;20035;-64
2024/01/20 11:03:05;;;;;;;14.90;6.07;;;;;;;11.22;41.89;102744.63;4976567;28;20056;-64
2024/01/20 11:05:32;;;;;;;12.40;6.22;;;;;;;11.35;41.06;102742.97;4974885;28;20525;-64
2024/01/20 11:08:05;;;;;;;17.20;6.93;;;;;;;11.47;40.68;102742.25;4993446;28;20476;-64
2024/01/20 11:10:38;;;;;;;11.45;5.68;;;;;;;11.41;40.17;102736.41;4974800;28;20054;-63
2024/01/20 11:13:04;;;;;;;12.55;6.88;;;;;;;11.25;41.14;102733.69;4975055;28;20043;-64
2024/01/20 11:15:31;;;;;;;16.02;5.88;;;;;;;11.39;41.03;102744.50;4958903;28;20023;-64
2024/01/20 11:17:56;;;;;;;13.48;5.88;;;;;;;11.44;41.02;102728.16;4958867;28;20035;-64